createdAt,value
2018-03-30T00:02:01.774Z,14.43
2018-03-30T00:04:27.972Z,14.73
2018-03-30T00:06:54.192Z,16.67
2018-03-30T00:09:33.476Z,17.83
2018-03-30T00:11:59.683Z,17.47
2018-03-30T00:14:25.873Z,16.20
2018-03-30T00:16:52.115Z,17.40
2018-03-30T00:19:18.352Z,17.83
2018-03-30T00:21:44.570Z,17.47
2018-03-30T00:24:10.833Z,17.03
2018-03-30T00:26:37.053Z,18.13
2018-03-30T00:29:03.250Z,18.47
2018-03-30T00:31:30.216Z,16.40
2018-03-30T00:33:56.409Z,16.23
2018-03-30T00:36:22.633Z,18.00
2018-03-30T00:38:48.830Z,16.73
2018-03-30T00:41:15.052Z,17.77
2018-03-30T00:43:41.247Z,17.83
2018-03-30T00:46:08.243Z,18.10
2018-03-30T00:48:34.442Z,18.03
2018-03-30T00:51:00.685Z,19.33
2018-03-30T00:53:39.302Z,17.73
2018-03-30T00:56:05.672Z,16.90
2018-03-30T00:58:31.872Z,19.87
2018-03-30T01:00:58.064Z,17.33
2018-03-30T01:03:25.025Z,18.60
2018-03-30T01:05:51.241Z,19.40
2018-03-30T01:08:18.211Z,18.30
2018-03-30T01:10:44.476Z,17.27
2018-03-30T01:13:11.222Z,18.30
2018-03-30T01:15:38.674Z,18.20
2018-03-30T01:18:05.516Z,17.50
2018-03-30T01:20:32.155Z,17.87
2018-03-30T01:22:58.424Z,18.20
2018-03-30T01:25:25.351Z,18.70
2018-03-30T01:27:51.559Z,17.13
2018-03-30T01:30:17.772Z,17.27
2018-03-30T01:32:44.022Z,16.93
2018-03-30T01:35:10.220Z,16.47
2018-03-30T01:37:36.443Z,17.03
2018-03-30T01:40:02.661Z,16.80
2018-03-30T01:42:28.891Z,16.87
2018-03-30T01:44:55.146Z,18.70
2018-03-30T01:47:21.352Z,14.73
2018-03-30T01:49:47.614Z,18.00
2018-03-30T01:52:13.805Z,16.87
2018-03-30T01:54:40.016Z,17.57
2018-03-30T01:57:06.957Z,17.13
2018-03-30T01:59:33.916Z,16.33
2018-03-30T02:02:00.854Z,17.90
2018-03-30T02:04:27.784Z,18.00
2018-03-30T02:06:54.011Z,19.50
2018-03-30T02:09:20.953Z,19.00
2018-03-30T02:11:47.173Z,19.47
2018-03-30T02:14:13.369Z,18.73
2018-03-30T02:16:39.622Z,19.70
2018-03-30T02:19:05.820Z,18.60
2018-03-30T02:21:32.096Z,18.30
2018-03-30T02:23:58.332Z,17.20
2018-03-30T02:26:24.553Z,16.50
2018-03-30T02:28:50.740Z,17.50
2018-03-30T02:31:16.952Z,17.87
2018-03-30T02:33:43.183Z,19.60
2018-03-30T02:36:09.405Z,18.50
2018-03-30T02:38:35.598Z,16.97
2018-03-30T02:41:01.817Z,19.30
2018-03-30T02:43:28.010Z,18.47
2018-03-30T02:45:54.220Z,17.37
2018-03-30T02:48:20.446Z,19.60
2018-03-30T02:50:46.669Z,19.07
2018-03-30T02:53:13.613Z,19.40
2018-03-30T02:55:41.079Z,20.53
2018-03-30T02:58:07.281Z,20.77
2018-03-30T03:00:33.607Z,21.90
2018-03-30T03:03:00.164Z,25.30
2018-03-30T03:05:27.097Z,25.93
2018-03-30T03:07:53.317Z,28.30
2018-03-30T03:10:19.513Z,27.63
2018-03-30T03:12:45.730Z,29.70
2018-03-30T03:15:11.921Z,26.60
2018-03-30T03:17:38.879Z,24.20
2018-03-30T03:20:05.816Z,26.57
2018-03-30T03:22:32.799Z,24.30
2018-03-30T03:24:58.992Z,22.30
2018-03-30T03:27:25.944Z,23.50
2018-03-30T03:29:52.871Z,20.33
2018-03-30T03:32:19.079Z,20.40
2018-03-30T03:34:45.590Z,19.53
2018-03-30T03:37:11.843Z,20.03
2018-03-30T03:39:38.037Z,20.83
2018-03-30T03:42:04.497Z,18.83
2018-03-30T03:44:30.688Z,21.17
2018-03-30T03:46:56.916Z,18.77
2018-03-30T03:49:23.120Z,19.03
2018-03-30T03:51:50.245Z,19.63
2018-03-30T03:54:16.444Z,19.93
2018-03-30T03:56:42.640Z,20.37
2018-03-30T03:59:09.596Z,20.37
2018-03-30T04:01:35.812Z,21.90
2018-03-30T04:04:02.764Z,21.13
2018-03-30T04:06:29.805Z,20.07
2018-03-30T04:08:56.747Z,23.20
2018-03-30T04:11:23.696Z,23.13
2018-03-30T04:13:50.643Z,25.17
2018-03-30T04:16:17.580Z,25.50
2018-03-30T04:18:44.545Z,25.43
2018-03-30T04:21:10.808Z,24.13
2018-03-30T04:23:37.060Z,22.80
2018-03-30T04:26:03.252Z,25.00
2018-03-30T04:28:29.472Z,22.23
2018-03-30T04:30:55.665Z,23.50
2018-03-30T04:33:22.623Z,22.47
2018-03-30T04:35:49.692Z,22.40
2018-03-30T04:38:15.909Z,22.27
2018-03-30T04:40:42.846Z,23.73
2018-03-30T04:43:09.800Z,22.57
2018-03-30T04:45:36.737Z,20.80
2018-03-30T04:48:03.709Z,20.60
2018-03-30T04:50:29.906Z,22.53
2018-03-30T04:52:56.836Z,36.93
2018-03-30T04:55:23.052Z,34.50
2018-03-30T04:57:49.247Z,28.37
2018-03-30T05:00:15.472Z,27.73
2018-03-30T05:02:41.659Z,26.23
2018-03-30T05:05:07.881Z,25.07
2018-03-30T05:07:34.841Z,21.37
2018-03-30T05:10:01.060Z,21.77
2018-03-30T05:12:27.269Z,20.33
2018-03-30T05:14:53.456Z,24.50
2018-03-30T05:17:19.670Z,26.40
2018-03-30T05:19:46.613Z,25.70
2018-03-30T05:22:13.576Z,22.93
2018-03-30T05:24:39.788Z,23.77
2018-03-30T05:27:06.748Z,20.13
2018-03-30T05:29:32.944Z,23.73
2018-03-30T05:31:59.160Z,21.70
2018-03-30T05:34:25.360Z,20.63
2018-03-30T05:36:51.576Z,19.83
2018-03-30T05:39:17.769Z,21.40
2018-03-30T05:41:44.736Z,20.97
2018-03-30T05:44:10.937Z,21.47
2018-03-30T05:46:37.188Z,19.50
2018-03-30T05:49:04.145Z,19.67
2018-03-30T05:51:30.357Z,19.50
2018-03-30T05:53:57.293Z,18.40
2018-03-30T05:56:24.251Z,20.13
2018-03-30T05:58:51.176Z,20.27
2018-03-30T06:01:17.392Z,21.23
2018-03-30T06:03:43.576Z,21.90
2018-03-30T06:06:09.769Z,22.10
2018-03-30T06:08:35.980Z,22.60
2018-03-30T06:11:02.174Z,23.50
2018-03-30T06:13:28.409Z,21.57
2018-03-30T06:15:54.644Z,20.90
2018-03-30T06:18:20.868Z,19.40
2018-03-30T06:20:47.060Z,20.73
2018-03-30T06:23:14.035Z,19.97
2018-03-30T06:25:40.234Z,20.23
2018-03-30T06:28:07.196Z,20.73
2018-03-30T06:30:33.396Z,18.73
2018-03-30T06:33:00.360Z,17.23
2018-03-30T06:35:27.297Z,14.70
2018-03-30T06:37:54.265Z,17.30
2018-03-30T06:40:20.477Z,16.97
2018-03-30T06:42:46.700Z,13.70
2018-03-30T06:45:12.912Z,14.37
2018-03-30T06:47:39.136Z,14.87
2018-03-30T06:50:06.084Z,12.80
2018-03-30T06:52:32.309Z,13.50
2018-03-30T06:54:58.511Z,16.43
2018-03-30T06:57:24.759Z,15.10
2018-03-30T06:59:50.977Z,12.83
2018-03-30T07:02:17.168Z,13.10
2018-03-30T07:04:43.384Z,12.50
2018-03-30T07:07:10.308Z,11.10
2018-03-30T07:09:36.527Z,11.23
2018-03-30T07:12:02.958Z,10.57
2018-03-30T07:14:29.924Z,11.20
2018-03-30T07:16:56.860Z,13.20
2018-03-30T07:19:23.220Z,13.87
2018-03-30T07:21:50.152Z,17.90
2018-03-30T07:24:17.144Z,21.83
2018-03-30T07:26:43.335Z,22.60
2018-03-30T07:29:10.288Z,30.73
2018-03-30T07:31:36.504Z,31.40
2018-03-30T07:34:03.472Z,24.20
2018-03-30T07:36:29.677Z,21.60
2018-03-30T07:38:56.633Z,17.57
2018-03-30T07:41:23.580Z,18.80
2018-03-30T07:43:50.537Z,17.07
2018-03-30T07:46:16.728Z,16.23
2018-03-30T07:48:43.137Z,15.87
2018-03-30T07:51:09.652Z,15.47
2018-03-30T07:53:35.840Z,13.97
2018-03-30T07:56:02.804Z,14.77
2018-03-30T07:58:28.992Z,13.57
2018-03-30T08:00:55.205Z,13.37
2018-03-30T08:03:21.395Z,13.60
2018-03-30T08:05:47.609Z,14.23
2018-03-30T08:08:14.556Z,15.33
2018-03-30T08:10:41.512Z,15.10
2018-03-30T08:13:07.700Z,15.85
2018-03-30T08:15:33.917Z,16.45
2018-03-30T08:18:00.109Z,14.85
2018-03-30T08:20:26.328Z,16.17
2018-03-30T08:22:52.560Z,14.93
2018-03-30T08:25:18.788Z,13.20
2018-03-30T08:27:44.984Z,12.10
2018-03-30T08:30:11.931Z,15.10
2018-03-30T08:32:38.144Z,12.00
2018-03-30T08:35:04.412Z,11.95
2018-03-30T08:37:30.624Z,11.40
2018-03-30T08:39:57.564Z,9.97
2018-03-30T08:42:23.776Z,10.85
2018-03-30T08:44:49.967Z,9.23
2018-03-30T08:47:16.184Z,10.47
2018-03-30T08:49:42.379Z,10.00
2018-03-30T08:52:09.317Z,10.60
2018-03-30T08:54:36.276Z,11.07
2018-03-30T08:57:03.218Z,10.80
2018-03-30T08:59:29.701Z,10.50
2018-03-30T09:01:55.904Z,10.20
2018-03-30T09:04:22.131Z,11.70
2018-03-30T09:06:48.324Z,10.93
2018-03-30T09:09:14.545Z,10.73
2018-03-30T09:11:40.744Z,11.03
2018-03-30T09:14:07.028Z,11.70
2018-03-30T09:16:33.225Z,11.73
2018-03-30T09:18:59.444Z,10.40
2018-03-30T09:21:25.640Z,11.27
2018-03-30T09:23:51.884Z,10.53
2018-03-30T09:26:18.071Z,10.60
2018-03-30T09:28:45.037Z,11.87
2018-03-30T09:31:11.972Z,11.80
2018-03-30T09:33:38.936Z,11.27
2018-03-30T09:36:05.192Z,9.80
2018-03-30T09:38:31.418Z,10.10
2018-03-30T09:40:57.617Z,10.00
2018-03-30T09:43:23.816Z,9.63
2018-03-30T09:45:50.037Z,11.73
2018-03-30T09:48:16.228Z,10.47
2018-03-30T09:50:42.444Z,11.93
2018-03-30T09:53:08.697Z,11.50
2018-03-30T09:55:34.914Z,11.43
2018-03-30T09:58:01.116Z,12.17
2018-03-30T10:00:28.086Z,9.70
2018-03-30T10:02:54.295Z,10.90
2018-03-30T10:05:20.520Z,9.33
2018-03-30T10:07:47.453Z,11.00
2018-03-30T10:10:14.484Z,12.23
2018-03-30T10:12:40.744Z,11.20
2018-03-30T10:15:07.716Z,10.30
2018-03-30T10:17:33.904Z,11.37
2018-03-30T10:20:00.858Z,11.17
2018-03-30T10:22:27.792Z,11.83
2018-03-30T10:24:54.032Z,10.90
2018-03-30T10:27:20.972Z,12.03
2018-03-30T10:29:47.933Z,10.97
2018-03-30T10:32:14.132Z,10.80
2018-03-30T10:34:40.360Z,11.60
2018-03-30T10:37:06.553Z,9.80
2018-03-30T10:39:32.764Z,11.65
2018-03-30T10:41:58.961Z,11.70
2018-03-30T10:44:25.925Z,12.50
2018-03-30T10:46:52.133Z,11.90
2018-03-30T10:49:19.091Z,10.30
2018-03-30T10:51:46.027Z,11.17
2018-03-30T10:54:12.999Z,11.70
2018-03-30T10:56:39.217Z,10.87
2018-03-30T10:59:06.148Z,10.93
2018-03-30T11:01:33.141Z,11.47
2018-03-30T11:03:59.339Z,11.40
2018-03-30T11:06:26.301Z,9.10
2018-03-30T11:08:52.489Z,10.43
2018-03-30T11:11:18.718Z,9.83
2018-03-30T11:13:44.916Z,10.33
2018-03-30T11:16:11.133Z,9.40
2018-03-30T11:18:37.328Z,10.47
2018-03-30T11:21:04.280Z,8.70
2018-03-30T11:23:30.501Z,12.27
2018-03-30T11:25:57.457Z,9.70
2018-03-30T11:28:23.648Z,8.77
2018-03-30T11:30:49.863Z,10.10
2018-03-30T11:33:16.052Z,9.60
2018-03-30T11:35:49.240Z,7.97
2018-03-30T11:38:15.441Z,8.20
2018-03-30T11:40:42.395Z,8.23
2018-03-30T11:43:09.328Z,8.83
2018-03-30T11:45:35.549Z,7.53
2018-03-30T11:48:01.751Z,8.50
2018-03-30T11:50:27.998Z,9.60
2018-03-30T11:52:54.208Z,9.43
2018-03-30T11:55:20.449Z,9.90
2018-03-30T11:57:46.708Z,9.23
2018-03-30T12:00:13.677Z,9.05
2018-03-30T12:02:39.864Z,9.20
2018-03-30T12:05:06.100Z,9.60
2018-03-30T12:07:32.300Z,11.07
2018-03-30T12:09:58.490Z,10.80
2018-03-30T12:12:24.717Z,11.00
2018-03-30T12:14:50.928Z,8.70
2018-03-30T12:17:17.901Z,11.40
2018-03-30T12:19:44.105Z,10.05
2018-03-30T12:22:11.061Z,10.70
2018-03-30T12:24:38.040Z,10.20
2018-03-30T12:27:04.256Z,10.00
2018-03-30T12:29:30.450Z,11.27
2018-03-30T12:31:57.410Z,10.60
2018-03-30T12:34:24.340Z,10.60
2018-03-30T12:36:50.551Z,12.83
2018-03-30T12:39:16.756Z,11.20
2018-03-30T12:41:42.972Z,10.27
2018-03-30T12:44:09.163Z,11.13
2018-03-30T12:46:36.121Z,11.40
2018-03-30T12:49:02.325Z,10.03
2018-03-30T12:51:29.301Z,11.03
2018-03-30T12:53:55.496Z,11.20
2018-03-30T12:56:21.721Z,10.90
2018-03-30T12:58:47.934Z,7.83
2018-03-30T13:01:14.129Z,10.20
2018-03-30T13:03:40.349Z,10.37
2018-03-30T13:06:06.551Z,10.67
2018-03-30T13:08:33.520Z,10.10
2018-03-30T13:10:59.711Z,11.27
2018-03-30T13:13:25.931Z,10.33
2018-03-30T13:15:52.152Z,10.70
2018-03-30T13:18:18.369Z,10.00
2018-03-30T13:20:44.555Z,11.27
2018-03-30T13:23:10.796Z,10.90
2018-03-30T13:25:36.986Z,11.90
2018-03-30T13:28:03.201Z,11.30
2018-03-30T13:30:29.398Z,10.30
2018-03-30T13:32:55.616Z,12.85
2018-03-30T13:35:21.877Z,11.50
2018-03-30T13:37:48.096Z,11.17
2018-03-30T13:40:14.285Z,11.55
2018-03-30T13:42:41.253Z,11.00
2018-03-30T13:45:07.445Z,10.50
2018-03-30T13:47:34.405Z,10.70
2018-03-30T13:50:01.348Z,11.80
2018-03-30T13:52:30.388Z,10.67
2018-03-30T13:54:56.629Z,12.75
2018-03-30T14:00:42.562Z,12.10
2018-03-30T14:03:17.748Z,12.70
2018-03-30T14:08:46.224Z,10.60
2018-03-30T14:11:16.160Z,11.60
2018-03-30T14:13:42.384Z,11.30
2018-03-30T14:16:18.844Z,9.83
2018-03-30T14:18:55.716Z,11.03
2018-03-30T14:21:22.696Z,11.40
2018-03-30T14:23:48.982Z,11.63
2018-03-30T14:26:17.072Z,11.33
2018-03-30T14:28:46.072Z,12.30
2018-03-30T14:31:17.881Z,10.90
2018-03-30T14:33:44.132Z,11.50
2018-03-30T14:36:32.376Z,11.03
2018-03-30T14:41:57.960Z,11.50
2018-03-30T14:44:29.933Z,10.17
2018-03-30T14:46:59.181Z,10.60
2018-03-30T14:49:30.936Z,12.60
2018-03-30T14:55:14.508Z,11.70
2018-03-30T14:57:46.642Z,12.27
2018-03-30T15:00:19.870Z,13.00
2018-03-30T15:02:52.619Z,13.23
2018-03-30T15:08:35.888Z,11.80
2018-03-30T15:11:15.317Z,10.87
2018-03-30T15:13:45.420Z,12.70
2018-03-30T15:19:15.349Z,22.60
2018-03-30T15:21:49.489Z,16.13
2018-03-30T15:24:30.856Z,13.30
2018-03-30T15:27:06.335Z,12.90
2018-03-30T15:29:47.383Z,12.90
2018-03-30T15:32:19.488Z,13.93
2018-03-30T15:34:46.700Z,12.83
2018-03-30T15:37:14.616Z,14.10
2018-03-30T15:39:42.473Z,11.20
2018-03-30T15:42:13.312Z,12.10
2018-03-30T15:44:41.093Z,13.47
2018-03-30T15:47:08.301Z,12.80
2018-03-30T15:49:35.600Z,12.63
2018-03-30T15:52:10.317Z,11.40
2018-03-30T15:54:37.300Z,12.17
2018-03-30T15:57:04.341Z,12.57
2018-03-30T15:59:30.594Z,12.40
2018-03-30T16:01:56.792Z,12.30
2018-03-30T16:04:23.032Z,12.93
2018-03-30T16:06:49.270Z,11.90
2018-03-30T16:09:15.500Z,12.13
2018-03-30T16:11:43.463Z,13.70
2018-03-30T16:14:09.723Z,12.33
2018-03-30T16:16:36.732Z,12.90
2018-03-30T16:19:02.804Z,12.27
2018-03-30T16:21:28.907Z,12.67
2018-03-30T16:23:55.003Z,10.93
2018-03-30T16:26:21.100Z,11.27
2018-03-30T16:28:47.896Z,11.93
2018-03-30T16:31:13.974Z,11.07
2018-03-30T16:33:40.777Z,12.30
2018-03-30T16:36:07.132Z,12.17
2018-03-30T16:38:33.193Z,11.43
2018-03-30T16:40:59.246Z,12.87
2018-03-30T16:43:25.333Z,11.20
2018-03-30T16:45:52.124Z,12.37
2018-03-30T16:48:18.208Z,12.97
2018-03-30T16:50:44.269Z,11.65
2018-03-30T16:53:10.745Z,13.87
2018-03-30T16:55:37.180Z,14.10
2018-03-30T16:58:04.004Z,11.47
2018-03-30T17:00:30.073Z,11.70
2018-03-30T17:02:56.177Z,12.50
2018-03-30T17:05:22.971Z,12.57
2018-03-30T17:07:49.065Z,16.40
2018-03-30T17:10:15.125Z,12.75
2018-03-30T17:12:41.212Z,11.57
2018-03-30T17:15:08.025Z,11.47
2018-03-30T17:17:34.116Z,10.90
2018-03-30T17:20:00.214Z,11.73
2018-03-30T17:22:26.305Z,11.90
2018-03-30T17:24:52.401Z,11.10
2018-03-30T17:27:18.483Z,11.00
2018-03-30T17:29:45.305Z,9.80
2018-03-30T17:32:11.375Z,9.97
2018-03-30T17:34:37.467Z,13.97
2018-03-30T17:37:04.272Z,34.87
2018-03-30T17:39:30.423Z,18.13
2018-03-30T17:41:56.508Z,11.30
2018-03-30T17:44:22.564Z,10.43
2018-03-30T17:46:48.616Z,10.43
2018-03-30T17:49:15.433Z,10.53
2018-03-30T17:51:41.497Z,10.43
2018-03-30T17:54:07.584Z,9.40
2018-03-30T17:56:33.677Z,11.07
2018-03-30T17:58:59.761Z,9.97
2018-03-30T18:01:26.566Z,9.17
2018-03-30T18:03:52.652Z,10.10
2018-03-30T18:06:18.720Z,9.20
2018-03-30T18:08:44.801Z,10.63
2018-03-30T18:11:10.856Z,10.73
2018-03-30T18:13:36.944Z,10.57
2018-03-30T18:16:02.995Z,11.15
2018-03-30T18:18:29.056Z,11.27
2018-03-30T18:20:55.868Z,11.37
2018-03-30T18:23:21.924Z,11.70
2018-03-30T18:25:48.028Z,11.53
2018-03-30T18:28:14.101Z,11.20
2018-03-30T18:30:40.927Z,10.70
2018-03-30T18:33:06.984Z,12.00
2018-03-30T18:35:33.072Z,11.67
2018-03-30T18:37:59.152Z,10.00
2018-03-30T18:40:25.228Z,14.00
2018-03-30T18:42:51.280Z,12.30
2018-03-30T18:45:18.112Z,12.77
2018-03-30T18:47:44.903Z,12.60
2018-03-30T18:50:10.960Z,11.20
2018-03-30T18:52:37.822Z,12.80
2018-03-30T18:55:04.624Z,12.57
2018-03-30T18:57:30.739Z,11.00
2018-03-30T18:59:56.787Z,12.00
2018-03-30T19:02:22.928Z,12.63
2018-03-30T19:04:49.376Z,12.30
2018-03-30T19:07:16.199Z,12.20
2018-03-30T19:09:42.252Z,13.30
2018-03-30T19:12:09.106Z,12.87
2018-03-30T19:14:35.168Z,12.63
2018-03-30T19:17:01.280Z,12.70
2018-03-30T19:19:27.335Z,14.17
2018-03-30T19:21:53.422Z,12.10
2018-03-30T19:24:19.525Z,12.73
2018-03-30T19:26:46.393Z,12.77
2018-03-30T19:29:12.454Z,13.13
2018-03-30T19:31:38.564Z,14.30
2018-03-30T19:34:04.648Z,12.97
2018-03-30T19:36:31.471Z,13.73
2018-03-30T19:38:57.528Z,13.13
2018-03-30T19:41:23.589Z,14.03
2018-03-30T19:43:49.676Z,14.40
2018-03-30T19:46:16.524Z,13.70
2018-03-30T19:48:42.721Z,13.70
2018-03-30T19:51:08.808Z,12.33
2018-03-30T19:53:34.897Z,12.90
2018-03-30T19:56:01.702Z,13.17
2018-03-30T19:58:27.820Z,13.20
2018-03-30T20:00:53.880Z,13.63
2018-03-30T20:03:20.740Z,13.33
2018-03-30T20:05:46.809Z,13.37
2018-03-30T20:08:12.990Z,12.13
2018-03-30T20:10:39.051Z,10.70
2018-03-30T20:13:05.222Z,12.60
2018-03-30T20:15:32.018Z,13.50
2018-03-30T20:17:58.117Z,14.27
2018-03-30T20:20:24.195Z,10.67
2018-03-30T20:22:50.248Z,13.63
2018-03-30T20:25:17.095Z,12.87
2018-03-30T20:27:43.899Z,14.97
2018-03-30T20:30:09.996Z,14.43
2018-03-30T20:32:36.057Z,10.10
2018-03-30T20:35:02.164Z,13.70
2018-03-30T20:37:28.228Z,13.23
2018-03-30T20:39:54.309Z,13.43
2018-03-30T20:42:20.362Z,12.67
2018-03-30T20:44:46.443Z,15.53
2018-03-30T20:47:12.516Z,15.67
2018-03-30T20:49:38.612Z,16.43
2018-03-30T20:52:04.662Z,16.90
2018-03-30T20:54:30.749Z,16.70
2018-03-30T20:56:56.820Z,16.20
2018-03-30T20:59:22.896Z,10.57
2018-03-30T21:01:48.960Z,15.53
2018-03-30T21:04:15.045Z,16.70
2018-03-30T21:06:41.118Z,15.40
2018-03-30T21:09:07.216Z,16.60
2018-03-30T21:11:33.281Z,16.77
2018-03-30T21:14:00.116Z,16.27
2018-03-30T21:16:26.171Z,14.87
2018-03-30T21:18:52.973Z,18.20
2018-03-30T21:21:19.060Z,17.17
2018-03-30T21:23:45.140Z,20.00
2018-03-30T21:26:11.252Z,19.30
2018-03-30T21:28:37.314Z,17.87
2018-03-30T21:31:04.154Z,17.30
2018-03-30T21:33:30.962Z,18.90
2018-03-30T21:35:57.049Z,15.37
2018-03-30T21:38:23.159Z,13.70
2018-03-30T21:40:49.233Z,14.77
2018-03-30T21:43:15.295Z,15.70
2018-03-30T21:45:42.121Z,14.20
2018-03-30T21:48:08.172Z,12.30
2018-03-30T21:50:34.996Z,10.70
2018-03-30T21:53:01.050Z,9.63
2018-03-30T21:55:27.144Z,12.00
2018-03-30T21:57:53.201Z,11.10
2018-03-30T22:00:19.288Z,10.03
2018-03-30T22:02:45.340Z,10.33
2018-03-30T22:05:12.429Z,10.90
2018-03-30T22:07:38.520Z,11.37
2018-03-30T22:10:05.668Z,11.17
2018-03-30T22:12:32.474Z,12.43
2018-03-30T22:14:58.533Z,11.63
2018-03-30T22:17:25.356Z,9.70
2018-03-30T22:19:51.418Z,12.13
2018-03-30T22:22:17.503Z,12.33
2018-03-30T22:24:43.588Z,8.70
2018-03-30T22:27:09.668Z,8.93
2018-03-30T22:29:35.788Z,10.80
2018-03-30T22:32:01.848Z,10.40
2018-03-30T22:34:27.935Z,10.13
2018-03-30T22:36:53.988Z,10.80
2018-03-30T22:39:20.815Z,10.87
2018-03-30T22:41:46.876Z,9.73
2018-03-30T22:44:13.219Z,12.63
2018-03-30T22:46:39.304Z,11.60
2018-03-30T22:49:06.110Z,10.10
2018-03-30T22:51:32.204Z,11.40
2018-03-30T22:53:58.280Z,10.13
2018-03-30T22:56:24.357Z,10.67
2018-03-30T22:58:50.445Z,11.80
2018-03-30T23:01:17.256Z,10.07
2018-03-30T23:03:43.335Z,9.77
2018-03-30T23:06:09.401Z,10.73
2018-03-30T23:08:42.456Z,10.10
2018-03-30T23:11:08.508Z,9.97
2018-03-30T23:13:34.569Z,11.40
2018-03-30T23:16:00.656Z,10.93
2018-03-30T23:18:26.708Z,8.60
2018-03-30T23:20:52.783Z,11.70
2018-03-30T23:23:18.847Z,8.50
2018-03-30T23:25:44.960Z,12.77
2018-03-30T23:28:11.032Z,9.80
2018-03-30T23:30:37.136Z,10.50
2018-03-30T23:33:03.597Z,11.53
2018-03-30T23:35:30.419Z,13.80
2018-03-30T23:37:56.496Z,11.60
2018-03-30T23:40:22.597Z,10.87
2018-03-30T23:42:49.404Z,12.60
2018-03-30T23:45:15.491Z,11.40
2018-03-30T23:47:41.549Z,11.30
2018-03-30T23:50:07.632Z,11.70
2018-03-30T23:52:33.685Z,11.90
2018-03-30T23:55:00.014Z,12.30
2018-03-30T23:57:26.077Z,13.43
2018-03-30T23:59:52.152Z,11.60
